createdAt,value
2019-03-23T00:02:49.976Z,16.73
2019-03-23T00:06:57.644Z,14.00
2019-03-23T00:11:05.251Z,13.87
2019-03-23T00:15:13.493Z,13.47
2019-03-23T00:19:20.918Z,15.53
2019-03-23T00:23:28.597Z,13.80
2019-03-23T00:27:36.298Z,14.10
2019-03-23T00:31:43.817Z,16.33
2019-03-23T00:35:51.365Z,26.17
2019-03-23T00:39:59.019Z,13.33
2019-03-23T00:44:07.574Z,14.77
2019-03-23T00:48:15.164Z,16.77
2019-03-23T00:52:22.649Z,17.10
2019-03-23T00:56:30.202Z,15.23
2019-03-23T01:00:38.054Z,13.97
2019-03-23T01:04:45.775Z,15.20
2019-03-23T01:08:53.456Z,13.97
2019-03-23T01:13:01.285Z,14.27
2019-03-23T01:17:08.928Z,16.90
2019-03-23T01:21:16.704Z,17.47
2019-03-23T01:25:24.376Z,15.40
2019-03-23T01:29:32.100Z,14.17
2019-03-23T01:33:39.671Z,19.27
2019-03-23T01:37:47.481Z,14.63
2019-03-23T01:41:55.239Z,15.27
2019-03-23T01:46:03.500Z,14.63
2019-03-23T01:50:11.630Z,17.07
2019-03-23T01:54:19.177Z,14.43
2019-03-23T01:58:26.780Z,16.00
2019-03-23T02:02:34.530Z,14.23
2019-03-23T02:06:42.114Z,14.63
2019-03-23T02:10:49.749Z,16.07
2019-03-23T02:14:57.322Z,15.43
2019-03-23T02:19:05.081Z,16.40
2019-03-23T02:23:12.652Z,13.67
2019-03-23T02:27:20.264Z,15.00
2019-03-23T02:31:28.116Z,17.33
2019-03-23T02:35:35.768Z,14.33
2019-03-23T02:39:43.348Z,14.93
2019-03-23T02:43:51.073Z,18.30
2019-03-23T02:47:59.092Z,18.17
2019-03-23T02:52:06.830Z,13.77
2019-03-23T02:56:14.452Z,14.03
2019-03-23T03:00:22.553Z,13.87
2019-03-23T03:04:30.262Z,14.50
2019-03-23T03:08:37.995Z,15.50
2019-03-23T03:12:45.566Z,14.77
2019-03-23T03:16:53.123Z,15.93
2019-03-23T03:21:00.605Z,18.80
2019-03-23T03:25:08.956Z,16.97
2019-03-23T03:29:16.531Z,16.23
2019-03-23T03:33:24.263Z,15.27
2019-03-23T03:37:31.854Z,15.37
2019-03-23T03:41:39.915Z,18.23
2019-03-23T03:45:47.502Z,15.40
2019-03-23T03:49:55.107Z,17.43
2019-03-23T03:54:02.686Z,20.03
2019-03-23T03:58:10.369Z,14.37
2019-03-23T04:02:18.035Z,16.90
2019-03-23T04:06:25.721Z,17.83
2019-03-23T04:10:33.242Z,18.20
2019-03-23T04:14:40.738Z,19.93
2019-03-23T04:18:48.249Z,17.27
2019-03-23T04:22:55.854Z,17.90
2019-03-23T04:27:05.184Z,18.33
2019-03-23T04:31:12.645Z,18.87
2019-03-23T04:35:20.306Z,17.33
2019-03-23T04:39:27.930Z,19.90
2019-03-23T04:43:35.498Z,21.07
2019-03-23T04:47:43.041Z,21.23
2019-03-23T04:51:50.735Z,23.27
2019-03-23T04:55:58.259Z,19.53
2019-03-23T05:00:06.832Z,18.57
2019-03-23T05:04:14.498Z,18.97
2019-03-23T05:08:32.857Z,19.40
2019-03-23T05:12:32.885Z,15.40
2019-03-23T05:16:40.605Z,17.03
2019-03-23T05:20:48.210Z,16.23
2019-03-23T05:24:55.761Z,16.40
2019-03-23T05:29:03.303Z,19.13
2019-03-23T05:33:10.946Z,18.90
2019-03-23T05:37:18.511Z,18.27
2019-03-23T05:41:26.120Z,18.97
2019-03-23T05:45:33.683Z,17.70
2019-03-23T05:49:41.365Z,17.23
2019-03-23T05:53:48.895Z,18.63
2019-03-23T05:57:56.429Z,20.33
2019-03-23T06:02:05.075Z,21.93
2019-03-23T06:06:12.636Z,19.13
2019-03-23T06:10:20.170Z,19.67
2019-03-23T06:14:27.716Z,21.83
2019-03-23T06:18:35.388Z,19.00
2019-03-23T06:22:43.190Z,19.50
2019-03-23T06:26:50.764Z,17.40
2019-03-23T06:30:58.414Z,16.97
2019-03-23T06:35:07.698Z,20.90
2019-03-23T06:39:15.229Z,15.53
2019-03-23T06:43:22.731Z,16.70
2019-03-23T06:47:30.340Z,16.47
2019-03-23T06:51:37.890Z,17.13
2019-03-23T06:55:45.566Z,18.17
2019-03-23T06:59:53.254Z,19.10
2019-03-23T07:04:01.014Z,17.57
2019-03-23T07:08:09.705Z,16.70
2019-03-23T07:12:17.277Z,17.93
2019-03-23T07:16:24.973Z,20.00
2019-03-23T07:20:32.652Z,17.33
2019-03-23T07:24:40.307Z,15.87
2019-03-23T07:28:48.006Z,19.23
2019-03-23T07:32:55.712Z,17.47
2019-03-23T07:37:03.386Z,18.47
2019-03-23T07:41:11.080Z,17.83
2019-03-23T07:45:19.040Z,18.17
2019-03-23T07:49:26.715Z,17.53
2019-03-23T07:53:34.878Z,19.53
2019-03-23T07:57:42.705Z,18.10
2019-03-23T08:01:50.241Z,21.97
2019-03-23T08:05:57.910Z,19.63
2019-03-23T08:10:06.021Z,21.40
2019-03-23T08:14:13.626Z,18.37
2019-03-23T08:18:21.097Z,23.73
2019-03-23T08:22:29.434Z,19.73
2019-03-23T08:26:37.039Z,21.10
2019-03-23T08:30:44.799Z,21.50
2019-03-23T08:34:52.508Z,19.30
2019-03-23T08:39:00.436Z,21.93
2019-03-23T08:43:09.639Z,20.37
2019-03-23T08:47:17.335Z,19.83
2019-03-23T08:51:25.034Z,20.93
2019-03-23T08:55:32.663Z,19.87
2019-03-23T08:59:40.472Z,19.97
2019-03-23T09:03:52.708Z,20.30
2019-03-23T09:07:57.614Z,20.90
2019-03-23T09:12:05.702Z,24.50
2019-03-23T09:16:13.321Z,20.67
2019-03-23T09:20:20.986Z,21.57
2019-03-23T09:24:28.689Z,21.87
2019-03-23T09:28:36.308Z,24.90
2019-03-23T09:32:44.435Z,25.10
2019-03-23T09:36:52.293Z,21.73
2019-03-23T09:41:00.184Z,22.87
2019-03-23T09:45:09.593Z,23.10
2019-03-23T09:49:17.372Z,23.53
2019-03-23T09:53:25.023Z,25.07
2019-03-23T09:57:32.684Z,26.93
2019-03-23T10:01:40.366Z,25.60
2019-03-23T10:05:48.231Z,27.83
2019-03-23T10:09:55.869Z,29.43
2019-03-23T10:14:03.663Z,34.10
2019-03-23T10:18:11.312Z,28.23
2019-03-23T10:22:18.836Z,29.60
2019-03-23T10:26:26.787Z,29.23
2019-03-23T10:30:34.862Z,32.53
2019-03-23T10:34:42.495Z,31.33
2019-03-23T10:38:50.102Z,33.50
2019-03-23T10:42:57.985Z,32.90
2019-03-23T10:47:07.072Z,32.93
2019-03-23T10:51:16.495Z,34.43
2019-03-23T10:55:24.305Z,34.13
2019-03-23T10:59:32.035Z,33.63
2019-03-23T11:03:40.079Z,32.53
2019-03-23T11:07:49.303Z,33.87
2019-03-23T11:11:57.305Z,52.33
2019-03-23T11:16:04.818Z,33.53
2019-03-23T11:20:13.141Z,34.17
2019-03-23T11:24:20.835Z,33.93
2019-03-23T11:28:28.732Z,32.83
2019-03-23T11:32:36.482Z,32.73
2019-03-23T11:36:44.117Z,35.50
2019-03-23T11:40:55.085Z,33.83
2019-03-23T11:45:01.184Z,30.53
2019-03-23T11:49:08.968Z,31.83
2019-03-23T11:53:16.794Z,32.20
2019-03-23T11:57:24.670Z,32.43
2019-03-23T12:01:32.403Z,31.20
2019-03-23T12:05:40.275Z,32.23
2019-03-23T12:09:48.035Z,29.80
2019-03-23T12:13:55.642Z,32.90
2019-03-23T12:18:06.818Z,33.00
2019-03-23T12:22:14.577Z,31.93
2019-03-23T12:26:22.483Z,32.63
2019-03-23T12:30:31.389Z,33.53
2019-03-23T12:34:39.411Z,35.50
2019-03-23T12:38:47.016Z,32.43
2019-03-23T12:42:54.874Z,32.07
2019-03-23T12:47:04.567Z,33.70
2019-03-23T12:51:11.868Z,31.63
2019-03-23T12:55:19.642Z,31.20
2019-03-23T12:59:37.302Z,31.03
2019-03-23T13:03:46.957Z,30.67
2019-03-23T13:07:56.097Z,31.03
2019-03-23T13:12:03.810Z,33.13
2019-03-23T13:16:11.575Z,31.53
2019-03-23T13:20:19.773Z,31.87
2019-03-23T13:24:27.582Z,33.97
2019-03-23T13:28:35.455Z,36.87
2019-03-23T13:32:43.282Z,38.60
2019-03-23T13:37:21.603Z,44.67
2019-03-23T13:41:29.358Z,38.43
2019-03-23T13:45:42.773Z,36.40
2019-03-23T13:49:49.273Z,37.57
2019-03-23T13:54:00.022Z,38.23
2019-03-23T13:58:15.678Z,36.57
2019-03-23T14:02:23.280Z,39.57
2019-03-23T14:06:31.146Z,39.37
2019-03-23T14:10:38.943Z,40.77
2019-03-23T14:14:48.348Z,37.07
2019-03-23T14:18:55.975Z,42.20
2019-03-23T14:23:03.824Z,40.87
2019-03-23T14:27:13.106Z,40.27
2019-03-23T14:31:21.055Z,42.43
2019-03-23T14:35:29.099Z,43.93
2019-03-23T14:39:37.071Z,41.40
2019-03-23T14:43:44.765Z,45.53
2019-03-23T14:47:52.583Z,48.80
2019-03-23T14:52:01.527Z,47.40
2019-03-23T14:56:11.348Z,50.87
2019-03-23T15:00:34.513Z,56.90
2019-03-23T15:04:42.363Z,59.13
2019-03-23T15:08:50.032Z,58.33
2019-03-23T15:12:57.826Z,62.53
2019-03-23T15:17:05.430Z,59.37
2019-03-23T15:21:13.027Z,60.23
2019-03-23T15:25:20.873Z,64.87
2019-03-23T15:29:30.439Z,65.17
2019-03-23T15:33:41.129Z,64.50
2019-03-23T15:37:49.186Z,67.27
2019-03-23T15:41:57.069Z,72.30
2019-03-23T15:46:04.886Z,68.87
2019-03-23T15:50:16.034Z,74.70
2019-03-23T15:54:23.653Z,75.70
2019-03-23T15:58:31.335Z,80.90
2019-03-23T16:02:39.256Z,81.57
2019-03-23T16:06:47.014Z,82.97
2019-03-23T16:10:54.707Z,86.43
2019-03-23T16:15:02.401Z,83.63
2019-03-23T16:19:10.124Z,81.87
2019-03-23T16:23:17.857Z,81.67
2019-03-23T16:27:25.399Z,81.30
2019-03-23T16:31:33.029Z,90.23
2019-03-23T16:35:40.861Z,86.13
2019-03-23T16:39:49.778Z,89.37
2019-03-23T16:43:57.486Z,85.37
2019-03-23T16:48:05.193Z,86.57
2019-03-23T16:52:12.809Z,83.40
2019-03-23T16:56:20.497Z,94.63
2019-03-23T17:00:39.480Z,96.03
2019-03-23T17:04:47.212Z,96.40
2019-03-23T17:08:55.099Z,100.00
2019-03-23T17:13:03.001Z,96.30
2019-03-23T17:17:13.928Z,97.43
2019-03-23T17:21:24.273Z,95.73
2019-03-23T17:25:32.212Z,90.63
2019-03-23T17:29:40.401Z,235.30
2019-03-23T17:33:48.718Z,109.57
2019-03-23T17:37:56.481Z,101.70
2019-03-23T17:42:05.072Z,103.07
2019-03-23T17:46:12.963Z,102.23
2019-03-23T17:50:23.707Z,96.93
2019-03-23T17:54:32.994Z,103.10
2019-03-23T17:58:44.297Z,103.33
2019-03-23T18:02:52.266Z,102.13
2019-03-23T18:07:00.228Z,111.97
2019-03-23T18:11:08.005Z,102.17
2019-03-23T18:15:17.104Z,101.73
2019-03-23T18:19:24.602Z,99.47
2019-03-23T18:23:32.290Z,94.73
2019-03-23T18:27:39.862Z,78.13
2019-03-23T18:31:47.406Z,67.23
2019-03-23T18:35:54.919Z,62.03
2019-03-23T18:40:02.658Z,64.33
2019-03-23T18:44:16.085Z,64.60
2019-03-23T18:48:19.705Z,59.27
2019-03-23T18:52:27.370Z,121.97
2019-03-23T18:56:34.948Z,54.77
2019-03-23T19:00:44.438Z,53.60
2019-03-23T19:04:51.986Z,52.63
2019-03-23T19:09:01.259Z,52.37
2019-03-23T19:13:10.721Z,49.97
2019-03-23T19:17:19.065Z,53.03
2019-03-23T19:21:27.255Z,50.83
2019-03-23T19:25:35.387Z,53.77
2019-03-23T19:29:43.421Z,47.70
2019-03-23T19:33:52.853Z,47.60
2019-03-23T19:38:01.007Z,46.10
2019-03-23T19:42:09.214Z,46.10
2019-03-23T19:46:18.337Z,47.33
2019-03-23T19:50:26.044Z,43.70
2019-03-23T19:54:33.719Z,45.70
2019-03-23T19:59:02.042Z,44.67
2019-03-23T20:03:04.392Z,47.00
2019-03-23T20:07:11.979Z,44.93
2019-03-23T20:11:19.610Z,43.67
2019-03-23T20:15:27.204Z,45.73
2019-03-23T20:19:35.874Z,43.67
2019-03-23T20:23:43.531Z,47.20
2019-03-23T20:27:51.089Z,41.67
2019-03-23T20:31:58.596Z,46.80
2019-03-23T20:36:06.090Z,49.07
2019-03-23T20:40:14.128Z,47.70
2019-03-23T20:44:21.673Z,49.53
2019-03-23T20:48:29.270Z,48.23
2019-03-23T20:52:36.870Z,49.13
2019-03-23T20:56:44.513Z,50.43
2019-03-23T21:00:52.315Z,48.90
2019-03-23T21:04:59.923Z,48.77
2019-03-23T21:09:10.434Z,45.17
2019-03-23T21:13:17.924Z,47.37
2019-03-23T21:17:25.497Z,46.40
2019-03-23T21:21:33.119Z,49.33
2019-03-23T21:25:40.786Z,45.47
2019-03-23T21:29:48.665Z,49.50
2019-03-23T21:33:56.404Z,48.63
2019-03-23T21:38:05.305Z,51.57
2019-03-23T21:42:14.136Z,53.87
2019-03-23T21:46:21.796Z,50.57
2019-03-23T21:50:30.084Z,52.30
2019-03-23T21:54:38.078Z,52.57
2019-03-23T21:58:48.526Z,52.13
2019-03-23T22:02:56.257Z,56.83
2019-03-23T22:07:03.878Z,52.40
2019-03-23T22:11:11.560Z,52.57
2019-03-23T22:15:19.589Z,51.07
2019-03-23T22:19:27.553Z,50.33
2019-03-23T22:23:36.043Z,50.27
2019-03-23T22:27:44.419Z,54.00
2019-03-23T22:31:52.229Z,56.20
2019-03-23T22:36:00.051Z,53.17
2019-03-23T22:40:10.042Z,56.73
2019-03-23T22:44:20.679Z,51.67
2019-03-23T22:48:28.276Z,53.60
2019-03-23T22:52:35.862Z,57.30
2019-03-23T22:56:43.703Z,57.27
2019-03-23T23:00:52.243Z,55.97
2019-03-23T23:05:00.465Z,55.33
2019-03-23T23:09:11.002Z,64.27
2019-03-23T23:13:18.768Z,57.53
2019-03-23T23:17:26.343Z,61.63
2019-03-23T23:21:34.000Z,59.93
2019-03-23T23:25:41.752Z,59.93
2019-03-23T23:29:49.576Z,61.73
2019-03-23T23:33:57.168Z,61.57
2019-03-23T23:38:04.787Z,66.10
2019-03-23T23:42:12.536Z,66.47
2019-03-23T23:46:20.344Z,54.33
2019-03-23T23:50:27.989Z,65.93
2019-03-23T23:54:35.776Z,60.93
2019-03-23T23:58:46.308Z,65.03
